FDMS/MTS METAR and TAF weather

Enter ICAO airport designator
Station Type Date Time Source
FDMS METAR 2020/03/27 09:00 UTC NOAA

FDMS 270900Z 10004KT 9999 BKN030 19/14 Q1023 NOSIG


Station Type Date Time Source
FDMS Decoded METAR 2020/03/27 09:00 UTC NOAA

Manzini / Matsapa Airport, Swaziland (FDMS) 26-32S 031-18E
Mar 27, 2020 - 05:00 AM EDT / 2020.03.27 0900 UTC
Wind: from the E (100 degrees) at 5 MPH (4 KT):0
Visibility: greater than 7 mile(s):0
Sky conditions: mostly cloudy
Temperature: 66 F (19 C)
Dew Point: 57 F (14 C)
Relative Humidity: 72%
Pressure (altimeter): 30.21 in. Hg (1023 hPa)
ob: FDMS 270900Z 10004KT 9999 BKN030 19/14 Q1023 NOSIG
cycle: 9

Station Type Date Time Source
FDMS TAF 2020/03/05 06:00 UTC NOAA

TAF TAF FDMS 050400Z 0506/0518 06007KT CAVOK

Example: see airport list